Time;durP1;ratioP1;P1;durP2;ratioP2;P2;SDS_P1;SDS_P2;PMS_P1;PMS_P2;Temp;Humidity;BMP_temperature;BMP_pressure;BME280_temperature;BME280_humidity;BME280_pressure;Samples;Min_cycle;Max_cycle;Signal;HPM_P1;HPM_P2
2022/10/19 00:01:07;;;;;;;6.32;1.60;;;;;;;;;;4993115;28;20033;-68
2022/10/19 00:03:34;;;;;;;5.50;1.67;;;;;;;;;;4993340;28;20101;-71
2022/10/19 00:06:08;;;;;;;4.20;1.20;;;;;;;;;;4993127;28;20034;-67
2022/10/19 00:08:34;;;;;;;10.60;1.15;;;;;;;;;;4993266;28;20033;-67
2022/10/19 00:11:00;;;;;;;5.35;1.20;;;;;;;;;;4993452;28;20034;-67
2022/10/19 00:13:25;;;;;;;6.70;1.30;;;;;;;;;;4992804;28;20049;-69
2022/10/19 00:15:51;;;;;;;5.85;1.10;;;;;;;;;;4993198;28;20027;-71
2022/10/19 00:18:16;;;;;;;3.92;0.88;;;;;;;;;;4993159;28;20034;-69
2022/10/19 00:20:42;;;;;;;4.93;1.00;;;;;;;;;;4992960;28;20584;-70
2022/10/19 00:23:07;;;;;;;4.93;0.90;;;;;;;;;;4993294;28;20030;-69
2022/10/19 00:25:33;;;;;;;7.05;1.02;;;;;;;;;;4993007;28;20037;-69
2022/10/19 00:27:59;;;;;;;6.18;1.08;;;;;;;;;;4993013;28;20077;-72
2022/10/19 00:30:25;;;;;;;5.75;1.45;;;;;;;;;;4997024;28;20030;-69
2022/10/19 00:32:50;;;;;;;8.30;1.25;;;;;;;;;;4996795;28;20026;-69
2022/10/19 00:35:16;;;;;;;8.68;1.05;;;;;;;;;;4996751;28;20034;-70
2022/10/19 00:37:41;;;;;;;5.80;1.00;;;;;;;;;;4996884;28;20027;-68
2022/10/19 00:40:07;;;;;;;3.72;0.90;;;;;;;;;;4996554;28;20030;-69
2022/10/19 00:42:33;;;;;;;6.20;1.25;;;;;;;;;;4996380;28;20062;-69
2022/10/19 00:45:01;;;;;;;7.32;1.08;;;;;;;;;;4996545;28;20014;-68
2022/10/19 00:47:27;;;;;;;4.80;0.88;;;;;;;;;;4996489;28;20038;-69
2022/10/19 00:49:53;;;;;;;3.45;0.57;;;;;;;;;;4996464;28;20033;-68
2022/10/19 00:52:22;;;;;;;5.78;0.80;;;;;;;;;;4996398;28;20033;-71
2022/10/19 00:54:49;;;;;;;6.90;0.93;;;;;;;;;;4996264;28;20069;-68
2022/10/19 00:57:15;;;;;;;8.32;0.90;;;;;;;;;;4996216;28;20440;-68
2022/10/19 00:59:43;;;;;;;5.57;1.00;;;;;;;;;;4996209;28;20065;-69
2022/10/19 01:02:09;;;;;;;7.22;0.95;;;;;;;;;;4996183;28;20026;-71
2022/10/19 01:04:37;;;;;;;4.63;0.80;;;;;;;;;;4996211;28;20102;-68
2022/10/19 01:07:04;;;;;;;2.92;0.90;;;;;;;;;;4996237;28;20479;-72
2022/10/19 01:09:30;;;;;;;3.25;0.77;;;;;;;;;;4996068;28;20038;-69
2022/10/19 01:12:19;;;;;;;2.92;0.70;;;;;;;;;;4995828;28;20034;-69
2022/10/19 01:15:03;;;;;;;7.75;1.45;;;;;;;;;;4996022;28;20496;-67
2022/10/19 01:17:31;;;;;;;3.25;0.82;;;;;;;;;;4995841;28;20194;-67
2022/10/19 01:20:15;;;;;;;4.40;0.90;;;;;;;;;;4995584;28;20037;-67
2022/10/19 01:22:58;;;;;;;3.58;0.70;;;;;;;;;;4995855;28;20034;-68
2022/10/19 01:26:00;;;;;;;3.53;1.00;;;;;;;;;;4995739;28;20026;-68
2022/10/19 01:28:52;;;;;;;4.32;0.80;;;;;;;;;;4995930;28;20421;-68
2022/10/19 01:31:52;;;;;;;3.47;0.80;;;;;;;;;;4995677;28;20025;-71
2022/10/19 01:34:48;;;;;;;8.52;1.05;;;;;;;;;;4992534;28;20069;-67
2022/10/19 01:37:31;;;;;;;4.07;0.80;;;;;;;;;;4995571;28;20022;-67
2022/10/19 01:40:06;;;;;;;5.10;0.70;;;;;;;;;;4995580;28;20161;-67
2022/10/19 01:42:50;;;;;;;4.40;1.00;;;;;;;;;;4995532;28;20117;-73
2022/10/19 01:45:24;;;;;;;1.77;0.60;;;;;;;;;;4995465;28;20037;-68
2022/10/19 01:48:00;;;;;;;2.30;0.50;;;;;;;;;;4995613;28;20380;-72
2022/10/19 01:50:41;;;;;;;1.63;0.60;;;;;;;;;;4995592;28;20045;-67
2022/10/19 01:53:09;;;;;;;3.70;0.75;;;;;;;;;;4995475;28;20023;-67
2022/10/19 01:55:38;;;;;;;1.88;0.60;;;;;;;;;;4994916;28;20499;-68
2022/10/19 01:58:09;;;;;;;2.63;0.60;;;;;;;;;;4995164;28;20034;-69
2022/10/19 02:00:38;;;;;;;3.60;1.48;;;;;;;;;;4995253;28;20027;-71
2022/10/19 02:03:05;;;;;;;3.80;0.70;;;;;;;;;;4995219;28;20383;-68
2022/10/19 02:05:32;;;;;;;4.78;0.70;;;;;;;;;;4994976;28;20042;-70
2022/10/19 02:08:02;;;;;;;5.20;0.80;;;;;;;;;;4995095;28;20495;-67
2022/10/19 02:10:30;;;;;;;4.13;0.80;;;;;;;;;;4994940;28;20483;-69
2022/10/19 02:12:57;;;;;;;6.13;0.90;;;;;;;;;;4994821;28;20046;-66
2022/10/19 02:15:25;;;;;;;5.07;1.00;;;;;;;;;;4994977;28;20018;-70
2022/10/19 02:17:56;;;;;;;4.05;1.00;;;;;;;;;;4994790;28;20053;-67
2022/10/19 02:20:21;;;;;;;;;;;;;;;;;;4994942;28;20117;-68
2022/10/19 02:22:47;;;;;;;3.22;0.73;;;;;;;;;;4994650;28;20423;-69
2022/10/19 02:25:13;;;;;;;5.05;0.90;;;;;;;;;;4994607;28;20026;-69
2022/10/19 02:27:42;;;;;;;3.50;0.77;;;;;;;;;;4994673;28;20065;-69
2022/10/19 02:30:14;;;;;;;5.22;0.85;;;;;;;;;;4994527;28;20496;-69
2022/10/19 02:32:40;;;;;;;6.97;0.82;;;;;;;;;;4994653;28;20476;-69
2022/10/19 02:35:06;;;;;;;6.32;0.90;;;;;;;;;;4994540;28;20027;-67
2022/10/19 02:37:32;;;;;;;4.47;0.82;;;;;;;;;;4994543;28;20026;-69
2022/10/19 02:39:58;;;;;;;1.88;0.65;;;;;;;;;;4994209;28;20084;-69
2022/10/19 02:42:42;;;;;;;2.83;0.65;;;;;;;;;;4994328;28;20026;-69
2022/10/19 02:45:20;;;;;;;5.45;0.88;;;;;;;;;;4994353;28;20030;-71
2022/10/19 02:48:12;;;;;;;4.28;0.80;;;;;;;;;;4994384;28;20037;-68
2022/10/19 02:50:42;;;;;;;2.05;0.57;;;;;;;;;;4991560;28;20093;-68
2022/10/19 02:53:08;;;;;;;3.05;0.70;;;;;;;;;;4993984;28;20050;-71
2022/10/19 02:55:34;;;;;;;1.65;0.65;;;;;;;;;;4994127;28;20065;-68
2022/10/19 02:57:59;;;;;;;2.80;0.70;;;;;;;;;;4994150;28;20418;-67
2022/10/19 03:00:25;;;;;;;6.10;1.08;;;;;;;;;;4994126;28;20034;-69
2022/10/19 03:02:50;;;;;;;4.97;0.90;;;;;;;;;;4993998;28;20064;-68
2022/10/19 03:05:16;;;;;;;3.13;1.10;;;;;;;;;;4993763;28;20077;-68
2022/10/19 03:07:42;;;;;;;2.80;1.10;;;;;;;;;;4993711;28;20519;-68
2022/10/19 03:10:08;;;;;;;2.10;0.70;;;;;;;;;;4993924;28;20124;-67
2022/10/19 03:12:33;;;;;;;2.97;0.70;;;;;;;;;;4993746;28;20046;-68
2022/10/19 03:14:59;;;;;;;6.15;1.13;;;;;;;;;;4993938;28;20018;-68
2022/10/19 03:17:24;;;;;;;4.95;1.23;;;;;;;;;;4993747;28;20054;-68
2022/10/19 03:19:50;;;;;;;5.38;0.98;;;;;;;;;;4993419;28;20113;-68
2022/10/19 03:22:15;;;;;;;3.70;0.98;;;;;;;;;;4993375;28;20085;-68
2022/10/19 03:24:41;;;;;;;3.88;0.82;;;;;;;;;;4993619;28;20026;-69
2022/10/19 03:27:06;;;;;;;3.95;1.10;;;;;;;;;;4993766;28;20030;-67
2022/10/19 03:29:32;;;;;;;3.47;1.10;;;;;;;;;;4993733;28;20030;-73
2022/10/19 03:31:57;;;;;;;2.85;0.80;;;;;;;;;;4993586;28;20030;-73
2022/10/19 03:34:22;;;;;;;2.90;0.90;;;;;;;;;;4992404;28;20037;-67
2022/10/19 03:36:48;;;;;;;3.20;0.80;;;;;;;;;;4993491;28;20365;-68
2022/10/19 03:39:15;;;;;;;5.55;1.17;;;;;;;;;;4993446;28;20062;-71
2022/10/19 03:41:41;;;;;;;4.43;1.50;;;;;;;;;;4993459;28;20092;-70
2022/10/19 03:44:08;;;;;;;5.13;1.00;;;;;;;;;;4993486;28;20027;-68
2022/10/19 03:46:35;;;;;;;6.00;0.90;;;;;;;;;;4993509;28;20396;-68
2022/10/19 03:49:01;;;;;;;7.85;1.08;;;;;;;;;;4993444;28;20064;-67
2022/10/19 03:51:28;;;;;;;4.65;0.88;;;;;;;;;;4993229;28;20062;-70
2022/10/19 03:53:57;;;;;;;5.15;1.15;;;;;;;;;;4993350;28;20032;-71
2022/10/19 03:56:24;;;;;;;4.93;0.80;;;;;;;;;;4993435;28;20069;-71
2022/10/19 03:58:52;;;;;;;4.85;1.10;;;;;;;;;;4993324;28;20498;-67
2022/10/19 04:01:23;;;;;;;7.20;1.40;;;;;;;;;;4993391;28;20053;-69
2022/10/19 04:03:58;;;;;;;6.55;0.90;;;;;;;;;;4995100;28;20530;-68
2022/10/19 04:06:29;;;;;;;4.90;1.00;;;;;;;;;;4997204;28;20164;-68
2022/10/19 04:08:55;;;;;;;5.55;1.17;;;;;;;;;;4997402;28;20023;-70
2022/10/19 04:11:23;;;;;;;10.48;1.30;;;;;;;;;;4997253;28;20030;-71
2022/10/19 04:13:50;;;;;;;4.70;1.00;;;;;;;;;;4996887;28;20042;-69
2022/10/19 04:16:17;;;;;;;6.63;1.05;;;;;;;;;;4997135;28;20428;-68
2022/10/19 04:18:42;;;;;;;4.25;1.00;;;;;;;;;;4996722;28;20384;-71
2022/10/19 04:21:38;;;;;;;4.88;0.82;;;;;;;;;;4996625;28;20032;-68
2022/10/19 04:24:05;;;;;;;4.38;0.90;;;;;;;;;;4992382;28;20034;-68
2022/10/19 04:26:31;;;;;;;3.92;1.00;;;;;;;;;;4996970;28;20025;-70
2022/10/19 04:28:58;;;;;;;5.55;1.10;;;;;;;;;;4996805;28;20038;-69
2022/10/19 04:31:23;;;;;;;5.25;1.30;;;;;;;;;;4996872;28;20029;-67
2022/10/19 04:33:49;;;;;;;3.90;1.00;;;;;;;;;;4996630;28;20404;-67
2022/10/19 04:36:14;;;;;;;2.53;0.90;;;;;;;;;;4996390;28;20030;-70
2022/10/19 04:38:40;;;;;;;6.13;0.80;;;;;;;;;;4996478;28;20026;-68
2022/10/19 04:41:11;;;;;;;10.75;1.50;;;;;;;;;;4996357;28;20439;-68
2022/10/19 04:43:36;;;;;;;4.05;0.80;;;;;;;;;;4996685;28;20022;-67
2022/10/19 04:46:08;;;;;;;5.53;1.08;;;;;;;;;;4996176;28;20030;-68
2022/10/19 04:48:35;;;;;;;4.95;1.50;;;;;;;;;;4996409;28;20093;-68
2022/10/19 04:51:01;;;;;;;7.25;1.27;;;;;;;;;;4996405;28;20034;-67
2022/10/19 04:53:27;;;;;;;3.72;0.88;;;;;;;;;;4996442;28;20084;-69
2022/10/19 04:55:53;;;;;;;4.75;0.98;;;;;;;;;;4996257;28;20109;-69
2022/10/19 04:58:18;;;;;;;4.65;1.42;;;;;;;;;;4996112;28;20336;-67
2022/10/19 05:00:44;;;;;;;6.75;1.25;;;;;;;;;;4996225;28;20385;-67
2022/10/19 05:03:09;;;;;;;4.95;0.90;;;;;;;;;;4996043;28;20030;-72
2022/10/19 05:05:35;;;;;;;6.35;1.10;;;;;;;;;;4995904;28;20023;-68
2022/10/19 05:08:00;;;;;;;12.25;1.20;;;;;;;;;;4996015;28;20468;-68
2022/10/19 05:10:26;;;;;;;7.57;1.13;;;;;;;;;;4996145;28;20066;-68
2022/10/19 05:12:51;;;;;;;7.95;1.38;;;;;;;;;;4995768;28;20094;-67
2022/10/19 05:15:17;;;;;;;3.15;1.00;;;;;;;;;;4995570;28;20130;-68
2022/10/19 05:17:42;;;;;;;4.45;0.88;;;;;;;;;;4995840;28;20030;-70
2022/10/19 05:20:10;;;;;;;4.95;0.93;;;;;;;;;;4995547;28;20121;-67
2022/10/19 05:22:36;;;;;;;7.47;1.02;;;;;;;;;;4995615;28;20142;-71
2022/10/19 05:25:02;;;;;;;4.50;0.90;;;;;;;;;;4995680;28;20023;-69
2022/10/19 05:27:27;;;;;;;5.18;1.10;;;;;;;;;;4995658;28;20022;-68
2022/10/19 05:29:52;;;;;;;6.00;1.20;;;;;;;;;;4995668;28;20467;-71
2022/10/19 05:32:18;;;;;;;5.13;1.00;;;;;;;;;;4995619;28;20490;-71
2022/10/19 05:34:43;;;;;;;3.42;0.95;;;;;;;;;;4995564;28;20053;-71
2022/10/19 05:37:09;;;;;;;3.75;1.05;;;;;;;;;;4995519;28;20376;-68
2022/10/19 05:39:34;;;;;;;2.97;1.00;;;;;;;;;;4995249;28;20038;-70
2022/10/19 05:42:00;;;;;;;4.53;1.50;;;;;;;;;;4995335;28;20376;-68
2022/10/19 05:44:25;;;;;;;9.02;1.55;;;;;;;;;;4995332;28;20026;-71
2022/10/19 05:46:51;;;;;;;11.93;1.10;;;;;;;;;;4994843;28;20558;-66
2022/10/19 05:49:19;;;;;;;10.07;1.75;;;;;;;;;;4995171;28;20034;-68
2022/10/19 05:51:44;;;;;;;6.35;1.60;;;;;;;;;;4995151;28;20027;-67
2022/10/19 05:54:11;;;;;;;5.90;1.45;;;;;;;;;;4995086;28;20080;-70
2022/10/19 05:56:36;;;;;;;6.03;1.50;;;;;;;;;;4995041;28;20034;-69
2022/10/19 05:59:04;;;;;;;7.10;1.80;;;;;;;;;;4995082;28;20057;-67
2022/10/19 06:01:30;;;;;;;6.07;1.55;;;;;;;;;;4994586;28;20364;-70
2022/10/19 06:03:57;;;;;;;6.05;1.90;;;;;;;;;;4994912;28;20267;-71
2022/10/19 06:06:25;;;;;;;6.45;1.40;;;;;;;;;;4995014;28;20054;-70
2022/10/19 06:08:51;;;;;;;4.63;1.33;;;;;;;;;;4994890;28;20061;-67
2022/10/19 06:11:23;;;;;;;9.80;1.95;;;;;;;;;;4994907;28;20491;-71
2022/10/19 06:13:52;;;;;;;4.97;1.13;;;;;;;;;;4994495;28;20057;-71
2022/10/19 06:16:18;;;;;;;3.25;0.90;;;;;;;;;;4994566;28;20037;-71
2022/10/19 06:18:45;;;;;;;4.75;1.15;;;;;;;;;;4994576;28;20169;-72
2022/10/19 06:21:13;;;;;;;4.72;1.10;;;;;;;;;;4994624;28;20176;-70
2022/10/19 06:23:39;;;;;;;4.10;1.20;;;;;;;;;;4994342;28;20076;-70
2022/10/19 06:26:08;;;;;;;4.68;1.20;;;;;;;;;;4993931;28;20054;-69
2022/10/19 06:28:34;;;;;;;5.20;1.20;;;;;;;;;;4994533;28;20105;-68
2022/10/19 06:30:59;;;;;;;3.97;1.00;;;;;;;;;;4994458;28;20097;-67
2022/10/19 06:33:31;;;;;;;6.50;1.15;;;;;;;;;;4994541;28;20023;-67
2022/10/19 06:36:12;;;;;;;5.75;1.38;;;;;;;;;;4994091;28;20026;-68
2022/10/19 06:38:38;;;;;;;1.92;1.10;;;;;;;;;;4994398;28;20037;-70
2022/10/19 06:41:04;;;;;;;4.00;1.08;;;;;;;;;;4994308;28;20373;-67
2022/10/19 06:43:31;;;;;;;3.60;1.30;;;;;;;;;;4994334;28;20038;-68
2022/10/19 06:45:56;;;;;;;2.70;1.15;;;;;;;;;;4993953;28;20034;-67
2022/10/19 06:48:22;;;;;;;5.63;1.70;;;;;;;;;;4994335;28;20037;-68
2022/10/19 06:50:58;;;;;;;3.25;1.10;;;;;;;;;;4994185;28;20440;-67
2022/10/19 06:53:24;;;;;;;3.80;1.30;;;;;;;;;;4994159;28;20057;-70
2022/10/19 06:55:50;;;;;;;10.98;1.50;;;;;;;;;;4993907;28;20058;-71
2022/10/19 06:58:15;;;;;;;6.50;1.40;;;;;;;;;;4994040;28;20104;-67
2022/10/19 07:00:41;;;;;;;15.38;2.63;;;;;;;;;;4993828;28;20077;-67
2022/10/19 07:03:06;;;;;;;5.40;1.30;;;;;;;;;;4994208;28;20026;-67
2022/10/19 07:05:32;;;;;;;3.63;1.20;;;;;;;;;;4993914;28;20403;-70
2022/10/19 07:07:57;;;;;;;10.45;1.70;;;;;;;;;;4993803;28;20117;-67
2022/10/19 07:10:23;;;;;;;5.72;1.40;;;;;;;;;;4993935;28;20026;-68
2022/10/19 07:12:48;;;;;;;4.57;1.70;;;;;;;;;;4993572;28;20125;-68
2022/10/19 07:15:14;;;;;;;8.25;1.60;;;;;;;;;;4993562;28;20485;-66
2022/10/19 07:17:39;;;;;;;6.88;1.30;;;;;;;;;;4993723;28;20396;-69
2022/10/19 07:20:05;;;;;;;10.20;1.48;;;;;;;;;;4993292;28;20032;-67
2022/10/19 07:22:31;;;;;;;5.95;2.00;;;;;;;;;;4993748;28;20034;-69
2022/10/19 07:24:57;;;;;;;6.25;2.65;;;;;;;;;;4993652;28;20124;-68
2022/10/19 07:27:23;;;;;;;9.10;3.88;;;;;;;;;;4993741;28;20026;-71
2022/10/19 07:29:48;;;;;;;6.68;2.60;;;;;;;;;;4993570;28;20069;-71
2022/10/19 07:32:14;;;;;;;6.20;2.58;;;;;;;;;;4993604;28;20073;-67
2022/10/19 07:34:39;;;;;;;8.57;3.22;;;;;;;;;;4993472;28;20026;-69
2022/10/19 07:37:05;;;;;;;8.00;1.55;;;;;;;;;;4993410;28;20031;-67
2022/10/19 07:39:31;;;;;;;8.93;2.17;;;;;;;;;;4993451;28;20034;-69
2022/10/19 07:41:56;;;;;;;4.63;1.95;;;;;;;;;;4993497;28;20030;-68
2022/10/19 07:44:22;;;;;;;6.97;2.30;;;;;;;;;;4993209;28;20033;-66
2022/10/19 07:46:47;;;;;;;7.85;1.70;;;;;;;;;;4993138;28;20445;-67
2022/10/19 07:49:15;;;;;;;5.90;1.67;;;;;;;;;;4993345;28;20369;-68
2022/10/19 07:51:41;;;;;;;3.60;1.63;;;;;;;;;;4993578;28;20403;-70
2022/10/19 07:54:07;;;;;;;5.22;1.80;;;;;;;;;;4993151;28;20539;-68
2022/10/19 07:56:33;;;;;;;4.85;1.63;;;;;;;;;;4993286;28;20121;-67
2022/10/19 07:58:59;;;;;;;5.65;2.10;;;;;;;;;;4993092;28;20153;-66
2022/10/19 08:01:30;;;;;;;6.30;2.13;;;;;;;;;;4993313;28;20023;-71
2022/10/19 08:03:58;;;;;;;5.82;1.70;;;;;;;;;;4993357;28;20113;-68
2022/10/19 08:06:24;;;;;;;6.20;1.48;;;;;;;;;;4992989;28;20027;-66
2022/10/19 08:08:50;;;;;;;5.93;1.48;;;;;;;;;;4993052;28;20037;-67
2022/10/19 08:11:17;;;;;;;6.18;1.70;;;;;;;;;;4993266;28;20085;-67
2022/10/19 08:13:43;;;;;;;7.30;2.00;;;;;;;;;;4992913;28;20053;-67
2022/10/19 08:16:37;;;;;;;5.43;1.65;;;;;;;;;;4993236;28;20022;-68
2022/10/19 08:19:08;;;;;;;5.43;1.25;;;;;;;;;;4993233;28;20437;-72
2022/10/19 08:21:35;;;;;;;5.28;1.20;;;;;;;;;;4993050;28;20026;-67
2022/10/19 08:24:01;;;;;;;6.63;1.50;;;;;;;;;;4993225;28;20030;-68
2022/10/19 08:26:30;;;;;;;5.25;1.95;;;;;;;;;;4993061;28;20029;-66
2022/10/19 08:29:06;;;;;;;3.58;1.45;;;;;;;;;;4993295;28;20023;-70
2022/10/19 08:31:31;;;;;;;5.60;1.40;;;;;;;;;;4992986;28;20030;-68
2022/10/19 08:33:57;;;;;;;5.32;1.05;;;;;;;;;;4992976;28;20022;-67
2022/10/19 08:36:24;;;;;;;4.38;1.30;;;;;;;;;;4993092;28;20066;-68
2022/10/19 08:38:50;;;;;;;3.97;1.67;;;;;;;;;;4992922;28;20145;-68
2022/10/19 08:41:28;;;;;;;1.95;1.00;;;;;;;;;;4992804;28;20076;-71
2022/10/19 08:44:21;;;;;;;3.03;1.00;;;;;;;;;;4992723;28;20026;-70
2022/10/19 08:47:08;;;;;;;4.10;1.30;;;;;;;;;;4992774;28;20109;-67
2022/10/19 08:49:34;;;;;;;2.92;1.10;;;;;;;;;;4994126;28;20483;-72
2022/10/19 08:52:24;;;;;;;5.88;1.30;;;;;;;;;;4996118;28;20525;-72
2022/10/19 08:54:54;;;;;;;4.13;1.02;;;;;;;;;;4996154;28;20150;-66
2022/10/19 08:57:23;;;;;;;3.08;1.10;;;;;;;;;;4996320;28;20394;-66
2022/10/19 08:59:59;;;;;;;3.92;1.00;;;;;;;;;;4996363;28;20026;-72
2022/10/19 09:02:40;;;;;;;3.92;1.15;;;;;;;;;;4996310;28;20030;-71
2022/10/19 09:05:34;;;;;;;2.03;0.90;;;;;;;;;;4996208;28;20026;-67
2022/10/19 09:08:00;;;;;;;4.68;1.05;;;;;;;;;;4996204;28;20019;-68
2022/10/19 09:10:33;;;;;;;1.75;0.90;;;;;;;;;;4995912;28;20053;-68
2022/10/19 09:13:00;;;;;;;2.75;0.90;;;;;;;;;;4996114;28;20085;-70
2022/10/19 09:15:33;;;;;;;5.57;0.90;;;;;;;;;;4995985;28;20057;-67
2022/10/19 09:18:01;;;;;;;1.77;0.90;;;;;;;;;;4996037;28;20065;-71
2022/10/19 09:20:34;;;;;;;4.53;0.70;;;;;;;;;;4995759;28;20040;-67
2022/10/19 09:23:44;;;;;;;3.67;0.90;;;;;;;;;;4995901;28;20061;-66
2022/10/19 09:26:18;;;;;;;5.93;1.10;;;;;;;;;;4994337;28;20451;-67
2022/10/19 09:28:53;;;;;;;6.97;1.17;;;;;;;;;;4995688;28;20030;-71
2022/10/19 09:31:39;;;;;;;2.17;1.05;;;;;;;;;;4995760;28;20023;-66
2022/10/19 09:34:19;;;;;;;3.63;1.15;;;;;;;;;;4995597;28;20480;-68
2022/10/19 09:36:50;;;;;;;;;;;;;;;;;;4996224;28;20034;-68
2022/10/19 09:39:16;;;;;;;1.88;0.90;;;;;;;;;;4995462;28;19913;-66
2022/10/19 09:42:12;;;;;;;2.05;0.80;;;;;;;;;;4995767;28;20507;-67
2022/10/19 09:44:37;;;;;;;1.73;0.70;;;;;;;;;;4995352;28;20139;-66
2022/10/19 09:47:25;;;;;;;1.88;0.95;;;;;;;;;;4995232;28;20142;-67
2022/10/19 09:50:04;;;;;;;0.95;0.63;;;;;;;;;;4995384;28;20019;-66
2022/10/19 09:52:41;;;;;;;1.00;0.50;;;;;;;;;;4995423;28;20168;-67
2022/10/19 09:55:12;;;;;;;3.75;0.90;;;;;;;;;;4995059;28;20368;-66
2022/10/19 09:57:46;;;;;;;1.55;0.60;;;;;;;;;;4995238;28;20035;-66
2022/10/19 10:00:36;;;;;;;1.88;1.00;;;;;;;;;;4994688;28;20122;-67
2022/10/19 10:03:03;;;;;;;3.15;0.85;;;;;;;;;;4992099;28;20126;-66
2022/10/19 10:05:30;;;;;;;2.08;0.77;;;;;;;;;;4994674;28;20423;-67
2022/10/19 10:07:56;;;;;;;2.58;0.68;;;;;;;;;;4994850;28;20030;-66
2022/10/19 10:10:35;;;;;;;2.08;0.80;;;;;;;;;;4994953;28;20110;-68
2022/10/19 10:13:01;;;;;;;2.10;0.70;;;;;;;;;;4994967;28;20072;-68
2022/10/19 10:15:42;;;;;;;2.17;0.85;;;;;;;;;;4994900;28;20384;-66
2022/10/19 10:18:14;;;;;;;4.50;0.80;;;;;;;;;;4994792;28;20027;-67
2022/10/19 10:21:10;;;;;;;3.63;1.42;;;;;;;;;;4994565;28;20034;-72
2022/10/19 10:23:36;;;;;;;5.13;1.63;;;;;;;;;;4994448;28;20375;-68
2022/10/19 10:26:04;;;;;;;4.45;1.63;;;;;;;;;;4994365;28;20507;-67
2022/10/19 10:28:31;;;;;;;5.32;1.40;;;;;;;;;;4994181;28;20415;-67
2022/10/19 10:31:03;;;;;;;2.65;0.98;;;;;;;;;;4994548;28;20026;-67
2022/10/19 10:33:31;;;;;;;2.35;1.00;;;;;;;;;;4994495;28;20023;-69
2022/10/19 10:36:03;;;;;;;1.05;0.63;;;;;;;;;;4994183;28;20484;-68
2022/10/19 10:38:42;;;;;;;2.70;0.90;;;;;;;;;;4994134;28;20029;-68
2022/10/19 10:41:24;;;;;;;1.38;0.50;;;;;;;;;;4994526;28;20388;-68
2022/10/19 10:44:05;;;;;;;2.33;1.48;;;;;;;;;;4994256;28;20046;-68
2022/10/19 10:46:37;;;;;;;2.30;0.70;;;;;;;;;;4993996;28;20026;-66
2022/10/19 10:49:05;;;;;;;3.35;0.60;;;;;;;;;;4994389;28;20037;-66
2022/10/19 10:51:41;;;;;;;1.27;0.60;;;;;;;;;;4994062;28;20080;-67
2022/10/19 10:54:25;;;;;;;2.90;0.77;;;;;;;;;;4994152;28;20033;-67
2022/10/19 10:57:01;;;;;;;0.95;0.65;;;;;;;;;;4994064;28;20074;-68
2022/10/19 11:00:14;;;;;;;5.22;0.90;;;;;;;;;;4994057;28;20042;-66
2022/10/19 11:02:56;;;;;;;3.03;0.90;;;;;;;;;;4972440;28;20045;-68
2022/10/19 11:05:28;;;;;;;1.90;0.80;;;;;;;;;;4956574;28;20588;-69
2022/10/19 11:08:21;;;;;;;3.60;1.13;;;;;;;;;;4972308;28;20053;-66
2022/10/19 11:11:03;;;;;;;1.73;1.00;;;;;;;;;;4972402;28;20034;-67
2022/10/19 11:13:47;;;;;;;0.85;0.40;;;;;;;;;;4971869;28;20043;-68
2022/10/19 11:16:22;;;;;;;0.88;0.40;;;;;;;;;;4972362;28;20039;-71
2022/10/19 11:18:53;;;;;;;1.70;0.60;;;;;;;;;;4972098;28;20027;-66
2022/10/19 11:21:27;;;;;;;6.00;0.90;;;;;;;;;;4971733;28;20051;-67
2022/10/19 11:24:37;;;;;;;3.15;1.00;;;;;;;;;;4972028;28;20054;-67
2022/10/19 11:27:28;;;;;;;3.28;0.80;;;;;;;;;;4972281;28;20030;-69
2022/10/19 11:30:08;;;;;;;1.02;0.70;;;;;;;;;;4956358;28;20133;-67
2022/10/19 11:32:38;;;;;;;;;;;;;;;;;;4972579;28;20031;-67
2022/10/19 11:35:30;;;;;;;1.15;0.70;;;;;;;;;;4955676;28;20264;-67
2022/10/19 11:38:11;;;;;;;3.15;0.75;;;;;;;;;;4972186;28;20031;-69
2022/10/19 11:40:41;;;;;;;0.85;0.60;;;;;;;;;;4993313;28;20483;-71
2022/10/19 11:43:19;;;;;;;3.92;0.88;;;;;;;;;;4993377;28;20101;-67
2022/10/19 11:45:57;;;;;;;1.33;0.60;;;;;;;;;;4993269;28;20023;-72
2022/10/19 11:48:40;;;;;;;1.15;0.52;;;;;;;;;;4993463;28;20542;-68
2022/10/19 11:51:05;;;;;;;2.65;0.50;;;;;;;;;;4993243;28;20038;-66
2022/10/19 11:54:02;;;;;;;2.55;0.70;;;;;;;;;;4993450;28;20036;-69
2022/10/19 11:56:50;;;;;;;1.58;0.50;;;;;;;;;;4993548;28;20034;-67
2022/10/19 11:59:43;;;;;;;2.38;0.95;;;;;;;;;;4989674;28;20035;-66
2022/10/19 12:02:59;;;;;;;0.90;0.55;;;;;;;;;;4993298;28;20027;-66
2022/10/19 12:05:33;;;;;;;2.38;0.85;;;;;;;;;;4993077;28;20026;-66
2022/10/19 12:07:58;;;;;;;0.88;0.50;;;;;;;;;;4993343;28;20030;-68
2022/10/19 12:10:47;;;;;;;2.13;0.75;;;;;;;;;;4993272;28;20080;-67
2022/10/19 12:13:18;;;;;;;2.40;0.80;;;;;;;;;;4993071;28;20043;-68
2022/10/19 12:15:48;;;;;;;2.15;0.60;;;;;;;;;;4993398;28;20089;-72
2022/10/19 12:18:47;;;;;;;3.58;1.27;;;;;;;;;;4993133;28;20076;-66
2022/10/19 12:21:28;;;;;;;3.58;1.08;;;;;;;;;;4971132;28;20516;-73
2022/10/19 12:23:55;;;;;;;;;;;;;;;;;;4972083;28;20452;-67
2022/10/19 12:26:21;;;;;;;2.40;0.60;;;;;;;;;;4975382;28;20006;-67
2022/10/19 12:28:51;;;;;;;0.65;0.50;;;;;;;;;;4975355;28;20056;-66
2022/10/19 12:31:17;;;;;;;0.98;0.40;;;;;;;;;;4975324;28;20053;-66
2022/10/19 12:34:08;;;;;;;1.00;0.60;;;;;;;;;;4974998;28;20039;-66
2022/10/19 12:36:54;;;;;;;1.85;0.60;;;;;;;;;;4975040;28;20077;-68
2022/10/19 12:39:22;;;;;;;2.55;0.80;;;;;;;;;;4974693;28;20118;-68
2022/10/19 12:42:00;;;;;;;0.43;0.40;;;;;;;;;;4974991;28;20078;-68
2022/10/19 12:45:03;;;;;;;2.65;0.60;;;;;;;;;;4975093;28;20042;-67
2022/10/19 12:47:28;;;;;;;0.77;0.30;;;;;;;;;;4974696;28;20118;-71
2022/10/19 12:49:55;;;;;;;1.65;0.60;;;;;;;;;;4974975;28;20122;-68
2022/10/19 12:52:47;;;;;;;0.73;0.40;;;;;;;;;;4974812;28;20599;-69
2022/10/19 12:55:15;;;;;;;1.75;0.57;;;;;;;;;;4974716;28;20033;-72
2022/10/19 12:57:46;;;;;;;3.03;0.93;;;;;;;;;;4993548;28;20034;-73
2022/10/19 13:00:27;;;;;;;2.72;0.85;;;;;;;;;;4996087;28;20041;-67
2022/10/19 13:03:04;;;;;;;2.85;0.60;;;;;;;;;;4996066;28;20431;-67
2022/10/19 13:05:31;;;;;;;1.25;0.63;;;;;;;;;;4996324;28;20475;-69
2022/10/19 13:08:00;;;;;;;1.55;0.60;;;;;;;;;;4996106;28;20092;-66
2022/10/19 13:10:27;;;;;;;1.45;0.60;;;;;;;;;;4995995;28;20029;-69
2022/10/19 13:12:53;;;;;;;1.38;0.50;;;;;;;;;;4995872;28;20038;-66
2022/10/19 13:15:37;;;;;;;1.45;0.55;;;;;;;;;;4995937;28;20100;-66
2022/10/19 13:18:15;;;;;;;1.80;0.90;;;;;;;;;;4995608;28;20030;-66
2022/10/19 13:20:50;;;;;;;0.95;0.50;;;;;;;;;;4995430;28;20488;-66
2022/10/19 13:23:16;;;;;;;1.58;0.68;;;;;;;;;;4995663;28;20096;-66
2022/10/19 13:25:42;;;;;;;4.75;0.60;;;;;;;;;;4995838;28;20217;-66
2022/10/19 13:28:16;;;;;;;1.13;0.60;;;;;;;;;;4995705;28;20117;-68
2022/10/19 13:30:42;;;;;;;1.67;0.60;;;;;;;;;;4995531;28;20471;-67
2022/10/19 13:33:29;;;;;;;3.00;0.70;;;;;;;;;;4995699;28;20034;-68
2022/10/19 13:35:57;;;;;;;1.00;0.65;;;;;;;;;;4995320;28;20149;-68
2022/10/19 13:38:28;;;;;;;1.10;0.65;;;;;;;;;;4995665;28;20022;-66
2022/10/19 13:41:08;;;;;;;2.03;0.60;;;;;;;;;;4995538;28;20026;-67
2022/10/19 13:43:55;;;;;;;3.80;0.65;;;;;;;;;;4995248;28;20113;-68
2022/10/19 13:46:30;;;;;;;1.20;0.50;;;;;;;;;;4995411;28;20034;-67
2022/10/19 13:49:42;;;;;;;1.88;0.52;;;;;;;;;;4995187;28;20030;-68
2022/10/19 13:52:28;;;;;;;1.60;0.65;;;;;;;;;;4973412;28;20043;-68
2022/10/19 13:55:12;;;;;;;2.05;1.00;;;;;;;;;;4973820;28;20027;-68
2022/10/19 13:57:43;;;;;;;0.50;0.50;;;;;;;;;;4973713;28;20038;-66
2022/10/19 14:00:18;;;;;;;1.17;0.40;;;;;;;;;;4973324;28;20448;-67
2022/10/19 14:02:59;;;;;;;1.48;0.60;;;;;;;;;;4973618;28;20035;-68
2022/10/19 14:05:36;;;;;;;0.90;0.50;;;;;;;;;;4972959;28;20424;-68
2022/10/19 14:08:19;;;;;;;1.52;0.73;;;;;;;;;;4973485;28;20031;-67
2022/10/19 14:10:50;;;;;;;1.15;0.50;;;;;;;;;;4973401;28;20113;-67
2022/10/19 14:13:15;;;;;;;1.60;0.73;;;;;;;;;;4973374;28;20077;-66
2022/10/19 14:15:51;;;;;;;3.00;1.30;;;;;;;;;;4972919;28;20530;-65
2022/10/19 14:18:33;;;;;;;1.52;0.70;;;;;;;;;;4973350;28;20476;-66
2022/10/19 14:21:01;;;;;;;0.80;0.57;;;;;;;;;;4973055;28;20111;-66
2022/10/19 14:23:33;;;;;;;1.95;0.73;;;;;;;;;;4973043;28;20030;-66
2022/10/19 14:26:01;;;;;;;2.63;0.60;;;;;;;;;;4973025;28;20134;-65
2022/10/19 14:28:27;;;;;;;0.93;0.52;;;;;;;;;;4982957;28;20038;-66
2022/10/19 14:31:02;;;;;;;1.40;0.82;;;;;;;;;;4994287;28;20535;-66
2022/10/19 14:33:32;;;;;;;2.28;1.00;;;;;;;;;;4994501;28;20026;-65
2022/10/19 14:35:58;;;;;;;4.90;1.30;;;;;;;;;;4994450;28;20388;-67
2022/10/19 14:38:36;;;;;;;7.53;2.53;;;;;;;;;;4994297;28;20037;-68
2022/10/19 14:41:16;;;;;;;2.60;1.20;;;;;;;;;;4993123;28;20117;-66
2022/10/19 14:43:41;;;;;;;1.98;0.80;;;;;;;;;;4994419;28;20105;-68
2022/10/19 14:46:07;;;;;;;1.08;0.60;;;;;;;;;;4994182;28;20500;-68
2022/10/19 14:48:34;;;;;;;1.20;0.50;;;;;;;;;;4993728;28;20026;-67
2022/10/19 14:51:01;;;;;;;1.65;0.90;;;;;;;;;;4994292;28;20122;-71
2022/10/19 14:54:02;;;;;;;1.38;0.70;;;;;;;;;;4994262;28;20029;-67
2022/10/19 14:56:33;;;;;;;4.68;0.98;;;;;;;;;;4972673;28;20532;-72
2022/10/19 14:59:12;;;;;;;1.80;0.70;;;;;;;;;;4972419;28;20101;-67
2022/10/19 15:01:37;;;;;;;2.65;0.80;;;;;;;;;;4972878;28;20035;-68
2022/10/19 15:04:03;;;;;;;2.95;1.58;;;;;;;;;;4972489;28;20027;-67
2022/10/19 15:06:41;;;;;;;2.95;0.90;;;;;;;;;;4972743;28;20039;-68
2022/10/19 15:09:13;;;;;;;2.10;0.90;;;;;;;;;;4972492;28;20384;-67
2022/10/19 15:11:42;;;;;;;1.60;0.90;;;;;;;;;;4972516;28;20030;-73